createdAt,value
2022-10-04T00:00:47.935Z,1022.35
2022-10-04T00:01:48.010Z,1022.34
2022-10-04T00:02:47.976Z,1022.31
2022-10-04T00:03:47.907Z,1022.33
2022-10-04T00:04:48.017Z,1022.31
2022-10-04T00:05:47.880Z,1022.32
2022-10-04T00:06:47.863Z,1022.30
2022-10-04T00:07:47.899Z,1022.27
2022-10-04T00:08:47.899Z,1022.33
2022-10-04T00:09:47.834Z,1022.27
2022-10-04T00:10:47.823Z,1022.29
2022-10-04T00:11:47.823Z,1022.28
2022-10-04T00:12:47.799Z,1022.33
2022-10-04T00:13:47.831Z,1022.32
2022-10-04T00:14:47.774Z,1022.26
2022-10-04T00:15:47.790Z,1022.27
2022-10-04T00:16:47.746Z,1022.27
2022-10-04T00:17:47.745Z,1022.24
2022-10-04T00:18:47.728Z,1022.23
2022-10-04T00:19:47.763Z,1022.24
2022-10-04T00:20:47.706Z,1022.22
2022-10-04T00:21:47.696Z,1022.16
2022-10-04T00:22:47.685Z,1022.11
2022-10-04T00:23:47.681Z,1022.12
2022-10-04T00:24:47.651Z,1022.13
2022-10-04T00:25:47.716Z,1022.10
2022-10-04T00:26:47.638Z,1022.12
2022-10-04T00:27:47.858Z,1022.21
2022-10-04T00:28:47.621Z,1022.17
2022-10-04T00:29:47.613Z,1022.20
2022-10-04T00:30:47.597Z,1022.17
2022-10-04T00:31:48.067Z,1022.11
2022-10-04T00:32:47.612Z,1022.07
2022-10-04T00:33:47.565Z,1022.06
2022-10-04T00:34:47.552Z,1022.12
2022-10-04T00:35:47.537Z,1022.08
2022-10-04T00:36:47.527Z,1022.04
2022-10-04T00:37:47.564Z,1022.05
2022-10-04T00:38:47.496Z,1022.04
2022-10-04T00:39:47.492Z,1022.05
2022-10-04T00:40:47.479Z,1022.02
2022-10-04T00:41:47.467Z,1022.00
2022-10-04T00:42:47.501Z,1022.03
2022-10-04T00:43:47.498Z,1022.02
2022-10-04T00:44:47.447Z,1022.01
2022-10-04T00:45:47.514Z,1021.94
2022-10-04T00:46:47.463Z,1021.94
2022-10-04T00:47:47.401Z,1021.88
2022-10-04T00:48:47.391Z,1021.88
2022-10-04T00:49:47.417Z,1021.82
2022-10-04T00:50:47.364Z,1021.83
2022-10-04T00:51:47.359Z,1021.86
2022-10-04T00:52:47.345Z,1021.76
2022-10-04T00:53:47.332Z,1021.77
2022-10-04T00:54:47.323Z,1021.73
2022-10-04T00:55:47.351Z,1021.75
2022-10-04T00:56:47.290Z,1021.74
2022-10-04T00:57:47.284Z,1021.70
2022-10-04T00:58:47.276Z,1021.63
2022-10-04T00:59:47.268Z,1021.69
2022-10-04T01:00:47.297Z,1021.72
2022-10-04T01:01:47.309Z,1021.68
2022-10-04T01:02:47.231Z,1021.69
2022-10-04T01:03:47.224Z,1021.69
2022-10-04T01:04:47.205Z,1021.71
2022-10-04T01:05:47.206Z,1021.73
2022-10-04T01:06:47.181Z,1021.71
2022-10-04T01:07:47.227Z,1021.67
2022-10-04T01:08:47.156Z,1021.71
2022-10-04T01:09:47.154Z,1021.70
2022-10-04T01:10:47.141Z,1021.69
2022-10-04T01:11:47.144Z,1021.72
2022-10-04T01:12:47.114Z,1021.71
2022-10-04T01:13:47.149Z,1021.68
2022-10-04T01:14:47.102Z,1021.68
2022-10-04T01:15:47.126Z,1021.65
2022-10-04T01:16:47.072Z,1021.63
2022-10-04T01:17:47.069Z,1021.66
2022-10-04T01:18:47.053Z,1021.67
2022-10-04T01:19:47.071Z,1021.60
2022-10-04T01:20:47.030Z,1021.63
2022-10-04T01:21:47.031Z,1021.65
2022-10-04T01:22:47.013Z,1021.61
2022-10-04T01:23:47.004Z,1021.62
2022-10-04T01:24:46.988Z,1021.57
2022-10-04T01:25:47.010Z,1021.60
2022-10-04T01:26:46.973Z,1021.59
2022-10-04T01:27:46.964Z,1021.59
2022-10-04T01:28:46.939Z,1021.61
2022-10-04T01:29:46.935Z,1021.59
2022-10-04T01:30:46.917Z,1021.52
2022-10-04T01:31:47.014Z,1021.57
2022-10-04T01:32:46.902Z,1021.53
2022-10-04T01:33:46.876Z,1021.57
2022-10-04T01:34:46.868Z,1021.61
2022-10-04T01:35:46.861Z,1021.59
2022-10-04T01:36:46.849Z,1021.58
2022-10-04T01:37:46.989Z,1021.54
2022-10-04T01:38:46.817Z,1021.55
2022-10-04T01:39:47.373Z,1021.52
2022-10-04T01:40:47.267Z,1021.47
2022-10-04T01:41:47.356Z,1021.51
2022-10-04T01:42:46.776Z,1021.53
2022-10-04T01:43:46.802Z,1021.50
2022-10-04T01:44:46.754Z,1021.46
2022-10-04T01:45:46.754Z,1021.41
2022-10-04T01:46:46.824Z,1021.48
2022-10-04T01:47:46.718Z,1021.44
2022-10-04T01:48:46.706Z,1021.47
2022-10-04T01:49:46.739Z,1021.50
2022-10-04T01:50:46.694Z,1021.49
2022-10-04T01:51:46.695Z,1021.45
2022-10-04T01:52:46.664Z,1021.48
2022-10-04T01:53:46.651Z,1021.46
2022-10-04T01:54:46.635Z,1021.43
2022-10-04T01:55:46.685Z,1021.41
2022-10-04T01:56:46.623Z,1021.44
2022-10-04T01:57:46.610Z,1021.44
2022-10-04T01:58:46.595Z,1021.46
2022-10-04T01:59:46.586Z,1021.44
2022-10-04T02:00:46.696Z,1021.39
2022-10-04T02:01:46.849Z,1021.41
2022-10-04T02:02:46.552Z,1021.40
2022-10-04T02:03:46.574Z,1021.45
2022-10-04T02:04:46.555Z,1021.38
2022-10-04T02:05:46.523Z,1021.34
2022-10-04T02:06:46.500Z,1021.30
2022-10-04T02:07:46.537Z,1021.28
2022-10-04T02:08:46.481Z,1021.26
2022-10-04T02:09:46.473Z,1021.23
2022-10-04T02:10:46.459Z,1021.22
2022-10-04T02:11:46.455Z,1021.19
2022-10-04T02:12:46.436Z,1021.20
2022-10-04T02:13:46.475Z,1021.21
2022-10-04T02:14:46.414Z,1021.21
2022-10-04T02:15:46.421Z,1021.22
2022-10-04T02:16:46.393Z,1021.25
2022-10-04T02:17:46.384Z,1021.21
2022-10-04T02:18:46.363Z,1021.19
2022-10-04T02:19:46.394Z,1021.13
2022-10-04T02:20:46.355Z,1021.13
2022-10-04T02:21:46.327Z,1021.13
2022-10-04T02:22:46.327Z,1021.04
2022-10-04T02:23:46.309Z,1021.11
2022-10-04T02:24:46.305Z,1021.03
2022-10-04T02:25:46.337Z,1021.07
2022-10-04T02:26:46.288Z,1021.03
2022-10-04T02:27:46.259Z,1021.09
2022-10-04T02:28:46.258Z,1021.11
2022-10-04T02:29:46.236Z,1021.06
2022-10-04T02:30:46.234Z,1021.07
2022-10-04T02:31:46.544Z,1021.03
2022-10-04T02:32:46.220Z,1020.97
2022-10-04T02:33:46.199Z,1020.98
2022-10-04T02:34:46.196Z,1020.96
2022-10-04T02:35:46.179Z,1020.95
2022-10-04T02:36:46.182Z,1020.97
2022-10-04T02:37:46.194Z,1020.93
2022-10-04T02:38:46.149Z,1020.90
2022-10-04T02:39:46.132Z,1020.85
2022-10-04T02:40:46.130Z,1020.85
2022-10-04T02:41:46.113Z,1020.82
2022-10-04T02:42:46.097Z,1020.85
2022-10-04T02:43:46.541Z,1020.83
2022-10-04T02:44:46.080Z,1020.82
2022-10-04T02:45:46.063Z,1020.79
2022-10-04T02:46:46.103Z,1020.75
2022-10-04T02:47:46.043Z,1020.78
2022-10-04T02:48:46.027Z,1020.84
2022-10-04T02:49:46.055Z,1020.86
2022-10-04T02:50:46.012Z,1020.83
2022-10-04T02:51:46.035Z,1020.82
2022-10-04T02:52:45.983Z,1020.78
2022-10-04T02:53:45.970Z,1020.80
2022-10-04T02:54:45.963Z,1020.78
2022-10-04T02:55:46.000Z,1020.76
2022-10-04T02:56:45.935Z,1020.76
2022-10-04T02:57:45.926Z,1020.81
2022-10-04T02:58:45.967Z,1020.77
2022-10-04T02:59:45.904Z,1020.74
2022-10-04T03:00:45.927Z,1020.69
2022-10-04T03:01:46.174Z,1020.65
2022-10-04T03:02:45.890Z,1020.64
2022-10-04T03:03:45.863Z,1020.58
2022-10-04T03:04:45.850Z,1020.64
2022-10-04T03:05:45.839Z,1020.62
2022-10-04T03:06:45.839Z,1020.62
2022-10-04T03:07:45.859Z,1020.61
2022-10-04T03:08:45.812Z,1020.54
2022-10-04T03:09:45.790Z,1020.57
2022-10-04T03:10:45.777Z,1020.60
2022-10-04T03:11:45.769Z,1020.58
2022-10-04T03:12:45.757Z,1020.61
2022-10-04T03:13:45.787Z,1020.66
2022-10-04T03:14:45.738Z,1020.64
2022-10-04T03:15:45.777Z,1020.64
2022-10-04T03:16:45.709Z,1020.62
2022-10-04T03:17:45.697Z,1020.59
2022-10-04T03:18:45.689Z,1020.63
2022-10-04T03:19:45.726Z,1020.53
2022-10-04T03:20:45.671Z,1020.48
2022-10-04T03:21:45.663Z,1020.41
2022-10-04T03:22:47.164Z,1020.42
2022-10-04T03:23:45.631Z,1020.39
2022-10-04T03:24:45.625Z,1020.38
2022-10-04T03:25:45.673Z,1020.35
2022-10-04T03:26:45.604Z,1020.34
2022-10-04T03:27:45.589Z,1020.36
2022-10-04T03:28:45.579Z,1020.40
2022-10-04T03:29:45.563Z,1020.37
2022-10-04T03:30:45.555Z,1020.39
2022-10-04T03:31:45.968Z,1020.36
2022-10-04T03:32:45.542Z,1020.34
2022-10-04T03:33:45.516Z,1020.36
2022-10-04T03:34:45.520Z,1020.39
2022-10-04T03:35:45.496Z,1020.34
2022-10-04T03:36:45.492Z,1020.33
2022-10-04T03:37:45.513Z,1020.34
2022-10-04T03:38:45.469Z,1020.27
2022-10-04T03:39:45.458Z,1020.31
2022-10-04T03:40:45.443Z,1020.34
2022-10-04T03:41:45.428Z,1020.33
2022-10-04T03:42:45.415Z,1020.29
2022-10-04T03:43:45.454Z,1020.30
2022-10-04T03:44:45.397Z,1020.33
2022-10-04T03:45:45.440Z,1020.30
2022-10-04T03:46:45.373Z,1020.29
2022-10-04T03:47:45.358Z,1020.30
2022-10-04T03:48:45.354Z,1020.30
2022-10-04T03:49:50.545Z,1020.28
2022-10-04T03:50:45.336Z,1020.34
2022-10-04T03:51:45.313Z,1020.32
2022-10-04T03:52:45.306Z,1020.37
2022-10-04T03:53:45.293Z,1020.31
2022-10-04T03:54:45.294Z,1020.31
2022-10-04T03:55:45.312Z,1020.27
2022-10-04T03:56:45.255Z,1020.33
2022-10-04T03:57:45.254Z,1020.32
2022-10-04T03:58:45.243Z,1020.25
2022-10-04T03:59:45.230Z,1020.28
2022-10-04T04:00:45.232Z,1020.29
2022-10-04T04:01:45.573Z,1020.31
2022-10-04T04:02:46.337Z,1020.31
2022-10-04T04:03:45.169Z,1020.29
2022-10-04T04:04:45.170Z,1020.35
2022-10-04T04:05:45.160Z,1020.35
2022-10-04T04:06:45.156Z,1020.34
2022-10-04T04:07:45.166Z,1020.35
2022-10-04T04:08:45.128Z,1020.35
2022-10-04T04:09:45.110Z,1020.40
2022-10-04T04:10:45.104Z,1020.39
2022-10-04T04:11:45.090Z,1020.36
2022-10-04T04:12:45.086Z,1020.36
2022-10-04T04:13:45.120Z,1020.30
2022-10-04T04:14:45.059Z,1020.36
2022-10-04T04:15:45.047Z,1020.29
2022-10-04T04:16:45.058Z,1020.33
2022-10-04T04:17:45.018Z,1020.31
2022-10-04T04:18:45.026Z,1020.28
2022-10-04T04:19:45.038Z,1020.34
2022-10-04T04:20:45.026Z,1020.30
2022-10-04T04:21:44.983Z,1020.31
2022-10-04T04:22:44.982Z,1020.25
2022-10-04T04:23:44.956Z,1020.29
2022-10-04T04:24:44.994Z,1020.25
2022-10-04T04:25:44.963Z,1020.27
2022-10-04T04:26:44.922Z,1020.26
2022-10-04T04:27:44.914Z,1020.27
2022-10-04T04:28:44.903Z,1020.31
2022-10-04T04:29:44.880Z,1020.27
2022-10-04T04:30:44.882Z,1020.24
2022-10-04T04:31:45.326Z,1020.26
2022-10-04T04:32:44.855Z,1020.27
2022-10-04T04:33:44.841Z,1020.25
2022-10-04T04:34:44.857Z,1020.28
2022-10-04T04:35:44.826Z,1020.25
2022-10-04T04:36:44.813Z,1020.29
2022-10-04T04:37:44.840Z,1020.30
2022-10-04T04:38:44.784Z,1020.31
2022-10-04T04:39:44.788Z,1020.22
2022-10-04T04:40:44.772Z,1020.28
2022-10-04T04:41:50.187Z,1020.26
2022-10-04T04:42:45.058Z,1020.19
2022-10-04T04:43:44.766Z,1020.20
2022-10-04T04:44:44.718Z,1020.23
2022-10-04T04:45:44.727Z,1020.24
2022-10-04T04:46:44.776Z,1020.20
2022-10-04T04:47:44.683Z,1020.23
2022-10-04T04:48:44.687Z,1020.19
2022-10-04T04:49:45.056Z,1020.16
2022-10-04T04:50:44.656Z,1020.20
2022-10-04T04:51:44.637Z,1020.15
2022-10-04T04:52:44.626Z,1020.20
2022-10-04T04:53:44.602Z,1020.09
2022-10-04T04:54:44.658Z,1020.09
2022-10-04T04:56:02.832Z,1020.08
2022-10-04T04:56:44.597Z,1020.05
2022-10-04T04:57:44.623Z,1020.05
2022-10-04T04:58:44.576Z,1020.06
2022-10-04T04:59:44.550Z,1020.06
2022-10-04T05:00:44.567Z,1020.06
2022-10-04T05:01:45.006Z,1020.07
2022-10-04T05:02:44.518Z,1020.06
2022-10-04T05:03:44.514Z,1020.08
2022-10-04T05:04:44.501Z,1020.04
2022-10-04T05:05:44.484Z,1020.07
2022-10-04T05:06:44.479Z,1020.10
2022-10-04T05:07:44.500Z,1020.08
2022-10-04T05:08:44.451Z,1020.11
2022-10-04T05:09:44.430Z,1020.15
2022-10-04T05:10:44.428Z,1020.14
2022-10-04T05:11:44.641Z,1020.16
2022-10-04T05:12:44.459Z,1020.07
2022-10-04T05:13:44.468Z,1020.08
2022-10-04T05:14:44.379Z,1020.06
2022-10-04T05:15:44.366Z,1020.09
2022-10-04T05:16:44.429Z,1020.06
2022-10-04T05:17:44.364Z,1020.07
2022-10-04T05:18:44.338Z,1020.02
2022-10-04T05:19:44.444Z,1020.03
2022-10-04T05:20:45.154Z,1020.03
2022-10-04T05:21:44.531Z,1020.01
2022-10-04T05:22:44.304Z,1020.01
2022-10-04T05:23:44.279Z,1020.03
2022-10-04T05:24:44.324Z,1019.99
2022-10-04T05:25:44.297Z,1020.02
2022-10-04T05:26:44.249Z,1020.05
2022-10-04T05:27:45.085Z,1020.02
2022-10-04T05:28:44.260Z,1020.08
2022-10-04T05:29:50.227Z,1019.98
2022-10-04T05:30:50.266Z,1019.97
2022-10-04T05:31:50.543Z,1019.93
2022-10-04T05:32:44.194Z,1019.96
2022-10-04T05:33:44.221Z,1019.96
2022-10-04T05:34:44.242Z,1019.97
2022-10-04T05:35:44.146Z,1019.95
2022-10-04T05:36:44.187Z,1019.97
2022-10-04T05:37:44.266Z,1019.97
2022-10-04T05:38:45.352Z,1019.96
2022-10-04T05:39:44.098Z,1019.94
2022-10-04T05:40:44.621Z,1019.90
2022-10-04T05:41:44.300Z,1019.88
2022-10-04T05:42:44.460Z,1019.87
2022-10-04T05:43:44.051Z,1019.98
2022-10-04T05:44:44.052Z,1019.93
2022-10-04T05:45:44.090Z,1019.92
2022-10-04T05:46:44.237Z,1019.89
2022-10-04T05:47:44.005Z,1019.94
2022-10-04T05:48:44.314Z,1019.94
2022-10-04T05:49:44.027Z,1019.91
2022-10-04T05:50:43.995Z,1019.91
2022-10-04T05:51:44.299Z,1019.87
2022-10-04T05:52:43.951Z,1019.93
2022-10-04T05:53:43.945Z,1019.87
2022-10-04T05:54:44.316Z,1019.89
2022-10-04T05:55:43.918Z,1019.89
2022-10-04T05:56:43.915Z,1019.90
2022-10-04T05:57:43.898Z,1019.96
2022-10-04T05:58:44.019Z,1019.94
2022-10-04T05:59:43.878Z,1019.94
2022-10-04T06:00:43.905Z,1019.91
2022-10-04T06:01:44.243Z,1019.95
2022-10-04T06:02:43.929Z,1019.93
2022-10-04T06:03:43.835Z,1019.91
2022-10-04T06:04:43.842Z,1019.95
2022-10-04T06:05:43.812Z,1019.99
2022-10-04T06:06:43.905Z,1020.00
2022-10-04T06:07:43.837Z,1019.95
2022-10-04T06:08:43.782Z,1019.94
2022-10-04T06:09:43.773Z,1019.89
2022-10-04T06:10:43.761Z,1019.87
2022-10-04T06:11:44.043Z,1019.91
2022-10-04T06:12:44.643Z,1019.88
2022-10-04T06:13:43.789Z,1019.85
2022-10-04T06:14:43.859Z,1019.82
2022-10-04T06:15:43.699Z,1019.85
2022-10-04T06:16:43.743Z,1019.85
2022-10-04T06:17:43.799Z,1019.83
2022-10-04T06:18:44.260Z,1019.86
2022-10-04T06:19:43.664Z,1019.84
2022-10-04T06:20:43.649Z,1019.88
2022-10-04T06:21:44.028Z,1019.90
2022-10-04T06:22:43.624Z,1019.88
2022-10-04T06:23:43.616Z,1019.89
2022-10-04T06:24:43.656Z,1019.89
2022-10-04T06:25:43.615Z,1019.91
2022-10-04T06:26:43.633Z,1019.90
2022-10-04T06:27:43.563Z,1019.89
2022-10-04T06:28:43.614Z,1019.93
2022-10-04T06:29:43.576Z,1019.89
2022-10-04T06:30:43.608Z,1019.91
2022-10-04T06:31:43.806Z,1019.87
2022-10-04T06:32:43.505Z,1019.91
2022-10-04T06:33:43.746Z,1019.88
2022-10-04T06:34:43.563Z,1019.91
2022-10-04T06:35:43.541Z,1019.89
2022-10-04T06:36:43.503Z,1019.93
2022-10-04T06:37:43.472Z,1019.99
2022-10-04T06:38:43.454Z,1019.95
2022-10-04T06:39:44.195Z,1019.96
2022-10-04T06:40:44.191Z,1019.94
2022-10-04T06:41:43.621Z,1019.94
2022-10-04T06:42:43.445Z,1019.88
2022-10-04T06:43:43.385Z,1019.93
2022-10-04T06:44:46.414Z,1019.80
2022-10-04T06:45:43.397Z,1019.85
2022-10-04T06:46:43.363Z,1019.83
2022-10-04T06:47:43.358Z,1019.84
2022-10-04T06:48:43.382Z,1019.83
2022-10-04T06:49:43.962Z,1019.83
2022-10-04T06:50:43.322Z,1019.80
2022-10-04T06:51:43.645Z,1019.85
2022-10-04T06:52:43.325Z,1019.81
2022-10-04T06:53:43.284Z,1019.83
2022-10-04T06:54:44.258Z,1019.76
2022-10-04T06:55:43.259Z,1019.78
2022-10-04T06:56:43.257Z,1019.79
2022-10-04T06:57:43.237Z,1019.73
2022-10-04T06:58:43.216Z,1019.77
2022-10-04T06:59:43.219Z,1019.75
2022-10-04T07:00:43.269Z,1019.74
2022-10-04T07:01:43.594Z,1019.78
2022-10-04T07:02:43.270Z,1019.78
2022-10-04T07:03:44.032Z,1019.80
2022-10-04T07:05:06.892Z,1019.75
2022-10-04T07:05:43.147Z,1019.77
2022-10-04T07:06:43.274Z,1019.76
2022-10-04T07:07:43.125Z,1019.80
2022-10-04T07:08:43.122Z,1019.78
2022-10-04T07:09:43.118Z,1019.79
2022-10-04T07:10:43.115Z,1019.81
2022-10-04T07:11:43.424Z,1019.84
2022-10-04T07:12:43.110Z,1019.74
2022-10-04T07:13:43.225Z,1019.84
2022-10-04T07:14:43.039Z,1019.84
2022-10-04T07:15:43.188Z,1019.81
2022-10-04T07:16:43.071Z,1019.83
2022-10-04T07:17:43.017Z,1019.84
2022-10-04T07:18:43.250Z,1019.85
2022-10-04T07:19:43.029Z,1019.79
2022-10-04T07:20:42.982Z,1019.83
2022-10-04T07:21:46.203Z,1019.75
2022-10-04T07:22:43.104Z,1019.79
2022-10-04T07:23:42.953Z,1019.81
2022-10-04T07:24:42.988Z,1019.88
2022-10-04T07:25:44.098Z,1019.81
2022-10-04T07:26:42.915Z,1019.87
2022-10-04T07:27:43.691Z,1019.89
2022-10-04T07:28:42.879Z,1019.92
2022-10-04T07:29:42.871Z,1019.87
2022-10-04T07:30:42.999Z,1019.85
2022-10-04T07:31:43.292Z,1019.86
2022-10-04T07:32:42.835Z,1019.84
2022-10-04T07:33:42.840Z,1019.86
2022-10-04T07:34:42.811Z,1019.81
2022-10-04T07:35:42.877Z,1019.78
2022-10-04T07:36:43.166Z,1019.86
2022-10-04T07:37:42.873Z,1019.81
2022-10-04T07:38:42.780Z,1019.79
2022-10-04T07:39:42.760Z,1019.82
2022-10-04T07:40:42.878Z,1019.81
2022-10-04T07:41:43.124Z,1019.83
2022-10-04T07:42:42.836Z,1019.73
2022-10-04T07:43:42.781Z,1019.74
2022-10-04T07:44:42.777Z,1019.79
2022-10-04T07:45:42.798Z,1019.82
2022-10-04T07:46:42.739Z,1019.81
2022-10-04T07:47:42.797Z,1019.80
2022-10-04T07:48:42.732Z,1019.82
2022-10-04T07:49:42.754Z,1019.78
2022-10-04T07:50:42.689Z,1019.80
2022-10-04T07:51:42.944Z,1019.87
2022-10-04T07:52:42.673Z,1019.86
2022-10-04T07:53:42.741Z,1019.83
2022-10-04T07:54:43.321Z,1019.87
2022-10-04T07:55:42.622Z,1019.96
2022-10-04T07:56:42.948Z,1019.84
2022-10-04T07:57:42.762Z,1019.87
2022-10-04T07:58:45.752Z,1019.88
2022-10-04T07:59:42.572Z,1019.87
2022-10-04T08:00:43.444Z,1019.88
2022-10-04T08:01:43.013Z,1019.87
2022-10-04T08:02:43.654Z,1019.86
2022-10-04T08:03:44.370Z,1019.87
2022-10-04T08:04:42.501Z,1019.83
2022-10-04T08:05:42.471Z,1019.89
2022-10-04T08:06:44.190Z,1019.87
2022-10-04T08:07:43.047Z,1019.89
2022-10-04T08:08:42.572Z,1019.91
2022-10-04T08:09:42.422Z,1019.87
2022-10-04T08:10:42.592Z,1019.88
2022-10-04T08:11:42.626Z,1019.86
2022-10-04T08:12:42.487Z,1019.88
2022-10-04T08:13:42.453Z,1019.86
2022-10-04T08:14:42.399Z,1019.85
2022-10-04T08:15:42.561Z,1019.82
2022-10-04T08:16:42.725Z,1019.84
2022-10-04T08:17:42.428Z,1019.81
2022-10-04T08:18:42.408Z,1019.85
2022-10-04T08:19:42.421Z,1019.78
2022-10-04T08:20:42.314Z,1019.75
2022-10-04T08:21:42.361Z,1019.71
2022-10-04T08:22:42.313Z,1019.63
2022-10-04T08:23:42.354Z,1019.61
2022-10-04T08:24:42.774Z,1019.61
2022-10-04T08:25:42.290Z,1019.60
2022-10-04T08:26:42.606Z,1019.60
2022-10-04T08:27:42.323Z,1019.61
2022-10-04T08:28:43.793Z,1019.57
2022-10-04T08:29:42.417Z,1019.60
2022-10-04T08:30:42.321Z,1019.67
2022-10-04T08:31:42.286Z,1019.63
2022-10-04T08:32:42.318Z,1019.64
2022-10-04T08:33:42.166Z,1019.61
2022-10-04T08:34:42.156Z,1019.55
2022-10-04T08:35:42.127Z,1019.52
2022-10-04T08:36:42.442Z,1019.56
2022-10-04T08:37:42.785Z,1019.54
2022-10-04T08:38:42.127Z,1019.58
2022-10-04T08:39:42.187Z,1019.57
2022-10-04T08:40:42.090Z,1019.57
2022-10-04T08:41:42.058Z,1019.48
2022-10-04T08:42:42.109Z,1019.51
2022-10-04T08:43:42.155Z,1019.47
2022-10-04T08:44:42.088Z,1019.44
2022-10-04T08:45:42.226Z,1019.43
2022-10-04T08:46:42.628Z,1019.49
2022-10-04T08:47:42.201Z,1019.50
2022-10-04T08:48:42.285Z,1019.47
2022-10-04T08:49:41.987Z,1019.45
2022-10-04T08:50:42.564Z,1019.42
2022-10-04T08:51:41.963Z,1019.41
2022-10-04T08:52:42.618Z,1019.34
2022-10-04T08:53:41.977Z,1019.52
2022-10-04T08:54:42.034Z,1019.49
2022-10-04T08:55:42.073Z,1019.45
2022-10-04T08:56:42.222Z,1019.40
2022-10-04T08:57:41.880Z,1019.45
2022-10-04T08:58:41.878Z,1019.41
2022-10-04T08:59:41.910Z,1019.45
2022-10-04T09:00:42.722Z,1019.43
2022-10-04T09:01:41.969Z,1019.37
2022-10-04T09:02:41.962Z,1019.41
2022-10-04T09:03:42.247Z,1019.40
2022-10-04T09:04:41.875Z,1019.41
2022-10-04T09:05:41.815Z,1019.41
2022-10-04T09:06:42.223Z,1019.36
2022-10-04T09:07:41.925Z,1019.37
2022-10-04T09:08:41.916Z,1019.37
2022-10-04T09:09:41.766Z,1019.29
2022-10-04T09:10:41.745Z,1019.29
2022-10-04T09:11:41.746Z,1019.32
2022-10-04T09:12:41.815Z,1019.29
2022-10-04T09:13:41.720Z,1019.29
2022-10-04T09:14:41.733Z,1019.30
2022-10-04T09:15:41.779Z,1019.27
2022-10-04T09:16:42.088Z,1019.23
2022-10-04T09:17:42.189Z,1019.25
2022-10-04T09:18:41.716Z,1019.25
2022-10-04T09:19:41.937Z,1019.24
2022-10-04T09:20:41.626Z,1019.27
2022-10-04T09:21:41.615Z,1019.19
2022-10-04T09:22:41.604Z,1019.23
2022-10-04T09:23:41.583Z,1019.25
2022-10-04T09:24:41.608Z,1019.31
2022-10-04T09:25:41.588Z,1019.23
2022-10-04T09:26:41.871Z,1019.27
2022-10-04T09:27:56.727Z,1019.32
2022-10-04T09:28:41.612Z,1019.28
2022-10-04T09:29:41.525Z,1019.40
2022-10-04T09:30:41.654Z,1019.32
2022-10-04T09:31:41.590Z,1019.37
2022-10-04T09:32:41.506Z,1019.40
2022-10-04T09:33:41.524Z,1019.32
2022-10-04T09:34:41.486Z,1019.36
2022-10-04T09:35:41.491Z,1019.38
2022-10-04T09:36:42.086Z,1019.39
2022-10-04T09:37:41.465Z,1019.29
2022-10-04T09:38:41.506Z,1019.31
2022-10-04T09:39:41.480Z,1019.28
2022-10-04T09:40:44.285Z,1019.27
2022-10-04T09:41:41.523Z,1019.28
2022-10-04T09:42:41.503Z,1019.26
2022-10-04T09:43:41.560Z,1019.32
2022-10-04T09:44:41.399Z,1019.28
2022-10-04T09:45:41.424Z,1019.27
2022-10-04T09:46:41.801Z,1019.21
2022-10-04T09:47:41.360Z,1019.20
2022-10-04T09:48:41.366Z,1019.13
2022-10-04T09:49:41.336Z,1019.15
2022-10-04T09:50:41.405Z,1019.09
2022-10-04T09:51:41.338Z,1019.16
2022-10-04T09:52:41.336Z,1019.12
2022-10-04T09:53:41.320Z,1019.13
2022-10-04T09:54:44.444Z,1019.18
2022-10-04T09:55:41.406Z,1019.17
2022-10-04T09:56:43.132Z,1019.25
2022-10-04T09:57:41.243Z,1019.22
2022-10-04T09:58:41.607Z,1019.14
2022-10-04T09:59:41.195Z,1019.13
2022-10-04T10:00:41.392Z,1019.11
2022-10-04T10:01:42.329Z,1019.12
2022-10-04T10:02:41.358Z,1019.06
2022-10-04T10:03:42.141Z,1019.05
2022-10-04T10:04:41.246Z,1019.10
2022-10-04T10:05:41.155Z,1019.00
2022-10-04T10:06:41.753Z,1019.00
2022-10-04T10:07:41.199Z,1019.00
2022-10-04T10:08:41.205Z,1019.02
2022-10-04T10:09:41.094Z,1019.03
2022-10-04T10:10:41.081Z,1019.07
2022-10-04T10:11:41.407Z,1019.07
2022-10-04T10:12:41.194Z,1018.97
2022-10-04T10:13:41.073Z,1019.01
2022-10-04T10:14:42.042Z,1019.02
2022-10-04T10:15:41.479Z,1018.96
2022-10-04T10:16:41.503Z,1019.13
2022-10-04T10:17:41.015Z,1018.98
2022-10-04T10:18:41.105Z,1018.98
2022-10-04T10:19:41.148Z,1018.96
2022-10-04T10:20:41.078Z,1019.06
2022-10-04T10:21:41.204Z,1018.99
2022-10-04T10:22:40.942Z,1018.99
2022-10-04T10:23:40.998Z,1018.94
2022-10-04T10:24:41.023Z,1018.93
2022-10-04T10:25:40.991Z,1018.97
2022-10-04T10:26:41.388Z,1018.96
2022-10-04T10:27:40.930Z,1018.89
2022-10-04T10:28:40.903Z,1018.87
2022-10-04T10:29:40.873Z,1018.88
2022-10-04T10:30:40.940Z,1018.91
2022-10-04T10:31:44.571Z,1018.82
2022-10-04T10:32:40.856Z,1018.84
2022-10-04T10:33:40.871Z,1018.86
2022-10-04T10:34:40.853Z,1018.80
2022-10-04T10:35:40.824Z,1018.72
2022-10-04T10:36:40.881Z,1018.74
2022-10-04T10:37:40.783Z,1018.77
2022-10-04T10:38:40.883Z,1018.70
2022-10-04T10:39:40.741Z,1018.71
2022-10-04T10:40:40.720Z,1018.77
2022-10-04T10:41:40.721Z,1018.80
2022-10-04T10:42:40.765Z,1018.81
2022-10-04T10:43:40.718Z,1018.78
2022-10-04T10:44:41.683Z,1018.72
2022-10-04T10:45:40.743Z,1018.68
2022-10-04T10:46:40.711Z,1018.71
2022-10-04T10:47:40.659Z,1018.62
2022-10-04T10:48:40.670Z,1018.59
2022-10-04T10:49:41.346Z,1018.54
2022-10-04T10:50:40.645Z,1018.55
2022-10-04T10:51:42.350Z,1018.57
2022-10-04T10:52:40.627Z,1018.56
2022-10-04T10:53:40.578Z,1018.52
2022-10-04T10:54:40.774Z,1018.54
2022-10-04T10:55:40.627Z,1018.51
2022-10-04T10:56:40.606Z,1018.48
2022-10-04T10:57:42.579Z,1018.42
2022-10-04T10:58:40.595Z,1018.39
2022-10-04T10:59:40.547Z,1018.37
2022-10-04T11:00:40.577Z,1018.40
2022-10-04T11:01:40.600Z,1018.42
2022-10-04T11:02:49.871Z,1018.45
2022-10-04T11:03:40.571Z,1018.49
2022-10-04T11:04:40.479Z,1018.48
2022-10-04T11:05:40.575Z,1018.47
2022-10-04T11:06:40.510Z,1018.53
2022-10-04T11:07:40.505Z,1018.52
2022-10-04T11:08:40.428Z,1018.52
2022-10-04T11:09:40.686Z,1018.55
2022-10-04T11:10:40.448Z,1018.53
2022-10-04T11:11:40.389Z,1018.55
2022-10-04T11:12:40.455Z,1018.50
2022-10-04T11:13:40.364Z,1018.53
2022-10-04T11:14:40.383Z,1018.64
2022-10-04T11:15:40.411Z,1018.66
2022-10-04T11:16:40.349Z,1018.84
2022-10-04T11:17:40.300Z,1018.59
2022-10-04T11:18:40.349Z,1018.75
2022-10-04T11:19:40.282Z,1018.75
2022-10-04T11:20:40.339Z,1018.78
2022-10-04T11:21:40.307Z,1018.68
2022-10-04T11:22:40.317Z,1018.69
2022-10-04T11:23:40.282Z,1018.74
2022-10-04T11:24:40.339Z,1018.67
2022-10-04T11:25:40.217Z,1018.63
2022-10-04T11:26:40.220Z,1018.65
2022-10-04T11:27:40.199Z,1018.62
2022-10-04T11:28:40.258Z,1018.56
2022-10-04T11:29:40.203Z,1018.62
2022-10-04T11:30:40.290Z,1018.63
2022-10-04T11:31:40.196Z,1018.62
2022-10-04T11:32:40.165Z,1018.71
2022-10-04T11:33:40.150Z,1018.74
2022-10-04T11:34:40.130Z,1018.62
2022-10-04T11:35:40.117Z,1018.56
2022-10-04T11:36:40.193Z,1018.60
2022-10-04T11:37:40.084Z,1018.61
2022-10-04T11:38:40.071Z,1018.53
2022-10-04T11:39:43.713Z,1018.48
2022-10-04T11:40:40.747Z,1018.57
2022-10-04T11:41:40.098Z,1018.55
2022-10-04T11:42:40.098Z,1018.50
2022-10-04T11:43:40.021Z,1018.46
2022-10-04T11:44:40.012Z,1018.48
2022-10-04T11:45:40.018Z,1018.57
2022-10-04T11:46:40.058Z,1018.56
2022-10-04T11:47:39.994Z,1018.56
2022-10-04T11:48:41.582Z,1018.42
2022-10-04T11:49:39.967Z,1018.48
2022-10-04T11:50:39.964Z,1018.37
2022-10-04T11:51:39.927Z,1018.40
2022-10-04T11:52:39.944Z,1018.40
2022-10-04T11:53:39.927Z,1018.35
2022-10-04T11:54:40.021Z,1018.33
2022-10-04T11:55:39.903Z,1018.32
2022-10-04T11:56:39.929Z,1018.37
2022-10-04T11:57:39.888Z,1018.36
2022-10-04T11:58:39.910Z,1018.31
2022-10-04T11:59:39.839Z,1018.34
2022-10-04T12:00:39.878Z,1018.36
2022-10-04T12:01:39.868Z,1018.21
2022-10-04T12:02:40.169Z,1018.28
2022-10-04T12:03:39.838Z,1018.24
2022-10-04T12:04:40.954Z,1018.25
2022-10-04T12:05:39.838Z,1018.29